createdAt,value
2023-02-03T00:01:30.271Z,16.27
2023-02-03T00:03:56.613Z,13.80
2023-02-03T00:06:23.111Z,15.23
2023-02-03T00:08:52.372Z,14.75
2023-02-03T00:11:18.685Z,14.40
2023-02-03T00:13:45.079Z,14.80
2023-02-03T00:16:11.482Z,12.43
2023-02-03T00:18:37.804Z,13.57
2023-02-03T00:21:04.195Z,14.63
2023-02-03T00:23:30.471Z,11.95
2023-02-03T00:25:56.743Z,19.52
2023-02-03T00:28:23.055Z,15.77
2023-02-03T00:30:49.352Z,12.35
2023-02-03T00:33:15.685Z,17.80
2023-02-03T00:35:41.972Z,12.02
2023-02-03T00:38:08.277Z,14.45
2023-02-03T00:40:34.550Z,12.73
2023-02-03T00:43:00.842Z,11.95
2023-02-03T00:45:27.144Z,10.68
2023-02-03T00:47:53.441Z,11.38
2023-02-03T00:50:19.765Z,15.80
2023-02-03T00:52:46.078Z,13.32
2023-02-03T00:55:12.381Z,10.20
2023-02-03T00:57:38.707Z,11.35
2023-02-03T01:00:06.221Z,16.85
2023-02-03T01:02:32.692Z,13.95
2023-02-03T01:04:59.032Z,12.52
2023-02-03T01:07:25.325Z,12.40
2023-02-03T01:09:51.657Z,16.95
2023-02-03T01:12:18.001Z,14.27
2023-02-03T01:14:44.279Z,11.55
2023-02-03T01:17:10.601Z,12.98
2023-02-03T01:19:36.915Z,14.60
2023-02-03T01:22:03.273Z,12.23
2023-02-03T01:24:30.587Z,15.30
2023-02-03T01:26:56.929Z,10.80
2023-02-03T01:29:23.336Z,10.60
2023-02-03T01:31:49.720Z,10.40
2023-02-03T01:34:16.370Z,9.68
2023-02-03T01:36:43.016Z,8.45
2023-02-03T01:39:10.418Z,12.27
2023-02-03T01:41:38.713Z,12.20
2023-02-03T01:44:42.781Z,9.50
2023-02-03T01:47:18.514Z,9.45
2023-02-03T01:49:52.274Z,11.27
2023-02-03T01:52:18.978Z,10.00
2023-02-03T01:54:48.243Z,11.38
2023-02-03T01:57:21.384Z,8.40
2023-02-03T01:59:49.717Z,12.32
2023-02-03T02:02:16.101Z,11.13
2023-02-03T02:05:01.238Z,12.63
2023-02-03T02:07:28.683Z,9.23
2023-02-03T02:09:56.345Z,9.07
2023-02-03T02:12:22.739Z,13.90
2023-02-03T02:14:49.127Z,8.65
2023-02-03T02:17:35.616Z,9.43
2023-02-03T02:20:23.088Z,9.38
2023-02-03T02:23:07.168Z,9.98
2023-02-03T02:25:52.026Z,10.55
2023-02-03T02:28:32.300Z,8.02
2023-02-03T02:31:36.664Z,10.57
2023-02-03T02:34:14.551Z,9.90
2023-02-03T02:36:57.062Z,10.15
2023-02-03T02:39:37.736Z,7.55
2023-02-03T02:42:41.305Z,12.32
2023-02-03T02:45:17.383Z,9.93
2023-02-03T02:47:44.435Z,9.35
2023-02-03T02:50:18.156Z,8.15
2023-02-03T02:52:46.847Z,9.18
2023-02-03T02:55:18.785Z,10.18
2023-02-03T02:57:47.390Z,10.82
2023-02-03T03:00:14.607Z,12.80
2023-02-03T03:02:40.967Z,5.82
2023-02-03T03:05:10.598Z,8.63
2023-02-03T03:07:45.382Z,6.22
2023-02-03T03:10:16.008Z,8.93
2023-02-03T03:12:50.116Z,7.72
2023-02-03T03:15:30.905Z,7.80
2023-02-03T03:18:17.783Z,7.50
2023-02-03T03:20:47.424Z,7.60
2023-02-03T03:23:37.674Z,7.63
2023-02-03T03:28:49.355Z,6.82
2023-02-03T03:31:18.927Z,7.00
2023-02-03T03:33:47.432Z,12.43
2023-02-03T03:36:26.063Z,7.07
2023-02-03T03:39:24.222Z,6.47
2023-02-03T03:42:12.871Z,4.45
2023-02-03T03:44:52.736Z,5.60
2023-02-03T03:47:30.327Z,4.57
2023-02-03T03:49:59.821Z,7.45
2023-02-03T03:52:31.272Z,5.25
2023-02-03T03:55:00.996Z,6.28
2023-02-03T03:57:39.543Z,6.35
2023-02-03T04:00:09.093Z,5.22
2023-02-03T04:02:39.095Z,5.90
2023-02-03T04:05:06.708Z,9.05
2023-02-03T04:07:44.680Z,6.35
2023-02-03T04:10:33.674Z,5.43
2023-02-03T04:13:00.674Z,4.45
2023-02-03T04:15:27.567Z,5.05
2023-02-03T04:17:54.108Z,5.53
2023-02-03T04:20:21.123Z,5.57
2023-02-03T04:22:47.465Z,6.53
2023-02-03T04:25:14.129Z,5.13
2023-02-03T04:27:40.495Z,5.35
2023-02-03T04:30:07.796Z,4.38
2023-02-03T04:32:34.126Z,7.93
2023-02-03T04:35:00.467Z,6.13
2023-02-03T04:37:27.159Z,5.07
2023-02-03T04:39:54.523Z,7.20
2023-02-03T04:42:21.853Z,7.10
2023-02-03T04:44:48.663Z,9.25
2023-02-03T04:47:15.801Z,9.00
2023-02-03T04:49:42.151Z,6.78
2023-02-03T04:52:08.605Z,5.47
2023-02-03T04:54:34.908Z,4.32
2023-02-03T04:57:01.521Z,8.57
2023-02-03T04:59:28.165Z,5.18
2023-02-03T05:01:54.481Z,9.25
2023-02-03T05:04:20.856Z,8.25
2023-02-03T05:06:47.184Z,7.47
2023-02-03T05:09:14.438Z,10.40
2023-02-03T05:11:40.848Z,8.65
2023-02-03T05:14:07.398Z,7.15
2023-02-03T05:16:33.724Z,8.35
2023-02-03T05:19:00.102Z,7.85
2023-02-03T05:21:26.422Z,5.63
2023-02-03T05:23:52.790Z,6.07
2023-02-03T05:26:19.082Z,6.20
2023-02-03T05:28:45.457Z,6.53
2023-02-03T05:31:11.992Z,5.53
2023-02-03T05:33:38.329Z,8.00
2023-02-03T05:36:04.872Z,6.13
2023-02-03T05:38:31.229Z,9.88
2023-02-03T05:40:57.708Z,7.00
2023-02-03T05:43:24.074Z,4.93
2023-02-03T05:45:50.449Z,8.00
2023-02-03T05:48:16.948Z,5.00
2023-02-03T05:50:43.297Z,8.20
2023-02-03T05:53:09.718Z,6.03
2023-02-03T05:55:36.499Z,7.25
2023-02-03T05:58:02.915Z,7.32
2023-02-03T06:00:30.014Z,7.43
2023-02-03T06:02:58.868Z,7.50
2023-02-03T06:05:26.199Z,8.93
2023-02-03T06:07:52.558Z,10.90
2023-02-03T06:10:19.099Z,7.15
2023-02-03T06:12:45.759Z,4.30
2023-02-03T06:15:12.465Z,8.32
2023-02-03T06:17:38.925Z,9.10
2023-02-03T06:20:06.940Z,6.63
2023-02-03T06:22:33.744Z,10.40
2023-02-03T06:25:00.088Z,9.48
2023-02-03T06:27:27.203Z,10.40
2023-02-03T06:29:53.515Z,8.85
2023-02-03T06:32:19.835Z,8.52
2023-02-03T06:34:46.133Z,11.38
2023-02-03T06:37:12.466Z,8.75
2023-02-03T06:39:38.780Z,7.97
2023-02-03T06:42:06.306Z,7.25
2023-02-03T06:44:32.659Z,8.15
2023-02-03T06:46:59.040Z,7.03
2023-02-03T06:49:25.505Z,9.90
2023-02-03T06:51:51.827Z,8.57
2023-02-03T06:54:18.204Z,7.75
2023-02-03T06:56:44.772Z,6.93
2023-02-03T06:59:11.072Z,9.80
2023-02-03T07:01:37.605Z,8.68
2023-02-03T07:04:04.617Z,8.10
2023-02-03T07:06:31.733Z,9.93
2023-02-03T07:09:00.698Z,10.02
2023-02-03T07:11:28.376Z,11.43
2023-02-03T07:13:54.736Z,9.27
2023-02-03T07:16:21.416Z,7.72
2023-02-03T07:18:48.517Z,9.10
2023-02-03T07:21:16.423Z,9.18
2023-02-03T07:23:43.001Z,7.03
2023-02-03T07:26:10.491Z,11.45
2023-02-03T07:28:37.230Z,9.15
2023-02-03T07:31:04.058Z,8.80
2023-02-03T07:33:31.323Z,9.35
2023-02-03T07:35:59.561Z,11.63
2023-02-03T07:38:28.009Z,8.52
2023-02-03T07:40:54.582Z,10.68
2023-02-03T07:43:21.047Z,9.00
2023-02-03T07:45:47.379Z,8.32
2023-02-03T07:48:13.835Z,7.45
2023-02-03T07:50:40.445Z,10.02
2023-02-03T07:53:07.679Z,9.77
2023-02-03T07:55:33.995Z,8.77
2023-02-03T07:58:03.129Z,10.38
2023-02-03T08:00:29.933Z,8.75
2023-02-03T08:02:56.420Z,8.15
2023-02-03T08:05:22.715Z,10.32
2023-02-03T08:07:49.048Z,9.40
2023-02-03T08:10:15.692Z,10.93
2023-02-03T08:12:44.003Z,9.02
2023-02-03T08:15:11.442Z,9.38
2023-02-03T08:17:37.873Z,8.32
2023-02-03T08:20:04.893Z,10.38
2023-02-03T08:22:31.190Z,10.20
2023-02-03T08:24:57.475Z,11.85
2023-02-03T08:27:23.933Z,11.02
2023-02-03T08:29:50.468Z,9.75
2023-02-03T08:32:19.888Z,8.73
2023-02-03T08:34:46.303Z,6.63
2023-02-03T08:37:15.332Z,8.05
2023-02-03T08:39:42.487Z,8.07
2023-02-03T08:42:09.380Z,13.23
2023-02-03T08:44:35.935Z,9.23
2023-02-03T08:47:02.515Z,9.00
2023-02-03T08:49:30.228Z,13.48
2023-02-03T08:51:58.003Z,9.25
2023-02-03T08:54:25.560Z,8.93
2023-02-03T08:56:52.022Z,10.70
2023-02-03T08:59:19.097Z,10.82
2023-02-03T09:01:45.800Z,14.43
2023-02-03T09:04:12.936Z,8.00
2023-02-03T09:06:39.599Z,5.95
2023-02-03T09:09:06.008Z,9.63
2023-02-03T09:11:32.480Z,8.00
2023-02-03T09:13:58.821Z,8.43
2023-02-03T09:16:25.485Z,9.90
2023-02-03T09:18:51.989Z,5.85
2023-02-03T09:21:33.030Z,8.50
2023-02-03T09:24:04.153Z,6.93
2023-02-03T09:26:30.691Z,7.50
2023-02-03T09:28:57.083Z,8.00
2023-02-03T09:31:23.520Z,7.43
2023-02-03T09:33:49.851Z,13.65
2023-02-03T09:36:16.260Z,10.73
2023-02-03T09:38:42.632Z,9.05
2023-02-03T09:41:15.028Z,10.20
2023-02-03T09:44:07.915Z,7.22
2023-02-03T09:46:41.587Z,7.47
2023-02-03T09:49:21.986Z,5.53
2023-02-03T09:52:15.394Z,8.75
2023-02-03T09:54:46.083Z,8.57
2023-02-03T09:57:26.200Z,9.60
2023-02-03T09:59:56.030Z,11.10
2023-02-03T10:02:29.939Z,9.40
2023-02-03T10:05:18.175Z,5.60
2023-02-03T10:08:06.810Z,7.15
2023-02-03T10:10:41.281Z,6.80
2023-02-03T10:13:26.382Z,7.10
2023-02-03T10:16:02.468Z,8.45
2023-02-03T10:18:33.650Z,9.80
2023-02-03T10:21:11.714Z,9.57
2023-02-03T10:23:41.508Z,8.40
2023-02-03T10:26:14.288Z,10.48
2023-02-03T10:28:50.546Z,12.00
2023-02-03T10:31:22.615Z,12.07
2023-02-03T10:34:00.011Z,5.45
2023-02-03T10:36:54.415Z,7.55
2023-02-03T10:39:36.311Z,8.52
2023-02-03T10:42:05.188Z,9.98
2023-02-03T10:44:39.963Z,9.05
2023-02-03T10:47:23.647Z,8.35
2023-02-03T10:49:52.731Z,7.45
2023-02-03T10:52:30.513Z,4.32
2023-02-03T10:54:57.597Z,9.20
2023-02-03T10:57:24.068Z,5.85
2023-02-03T10:59:50.461Z,9.43
2023-02-03T11:02:30.477Z,6.38
2023-02-03T11:05:28.918Z,9.20
2023-02-03T11:07:55.416Z,7.90
2023-02-03T11:10:35.296Z,11.80
2023-02-03T11:13:13.075Z,9.52
2023-02-03T11:15:51.303Z,7.95
2023-02-03T11:18:36.034Z,9.65
2023-02-03T11:21:19.698Z,8.55
2023-02-03T11:24:08.647Z,11.25
2023-02-03T11:27:01.922Z,8.68
2023-02-03T11:29:30.999Z,12.27
2023-02-03T11:32:01.038Z,8.27
2023-02-03T11:34:36.752Z,6.72
2023-02-03T11:37:32.987Z,8.10
2023-02-03T11:42:37.257Z,9.38
2023-02-03T11:45:28.125Z,7.90
2023-02-03T11:48:00.508Z,8.13
2023-02-03T11:50:31.649Z,9.38
2023-02-03T11:53:29.411Z,6.90
2023-02-03T11:56:14.620Z,11.35
2023-02-03T11:59:03.116Z,10.70
2023-02-03T12:01:59.031Z,7.95
2023-02-03T12:05:02.029Z,14.77
2023-02-03T12:07:43.897Z,8.32
2023-02-03T12:10:29.933Z,8.73
2023-02-03T12:13:14.636Z,11.00
2023-02-03T12:15:56.071Z,10.45
2023-02-03T12:18:40.874Z,7.30
2023-02-03T12:21:29.824Z,9.80
2023-02-03T12:24:07.903Z,10.40
2023-02-03T12:26:56.402Z,14.65
2023-02-03T12:29:32.449Z,12.18
2023-02-03T12:32:12.205Z,10.55
2023-02-03T12:34:59.658Z,12.18
2023-02-03T12:37:30.535Z,11.88
2023-02-03T12:40:06.376Z,15.85
2023-02-03T12:42:42.169Z,6.78
2023-02-03T12:45:08.505Z,10.48
2023-02-03T12:47:42.679Z,12.20
2023-02-03T12:50:23.837Z,11.73
2023-02-03T12:53:00.514Z,11.50
2023-02-03T12:55:36.953Z,10.93
2023-02-03T12:58:22.399Z,14.10
2023-02-03T13:00:54.461Z,17.08
2023-02-03T13:06:14.599Z,14.13
2023-02-03T13:08:50.516Z,13.85
2023-02-03T13:11:27.672Z,13.45
2023-02-03T13:14:26.272Z,14.65
2023-02-03T13:17:27.016Z,15.82
2023-02-03T13:19:59.934Z,13.27
2023-02-03T13:22:26.680Z,15.85
2023-02-03T13:25:00.826Z,10.88
2023-02-03T13:27:43.071Z,15.55
2023-02-03T13:30:09.432Z,10.63
2023-02-03T13:32:46.217Z,12.02
2023-02-03T13:35:34.357Z,19.35
2023-02-03T13:38:35.575Z,15.77
2023-02-03T13:41:08.831Z,13.45
2023-02-03T13:43:40.241Z,14.57
2023-02-03T13:46:19.361Z,16.13
2023-02-03T13:48:46.563Z,14.38
2023-02-03T13:51:20.339Z,16.98
2023-02-03T13:53:48.639Z,16.55
2023-02-03T13:56:22.627Z,15.52
2023-02-03T13:59:14.113Z,18.52
2023-02-03T14:01:41.716Z,13.52
2023-02-03T14:04:29.299Z,22.70
2023-02-03T14:06:58.813Z,15.05
2023-02-03T14:09:46.581Z,19.65
2023-02-03T14:12:15.715Z,16.08
2023-02-03T14:14:56.096Z,15.15
2023-02-03T14:17:34.413Z,16.05
2023-02-03T14:20:02.105Z,12.98
2023-02-03T14:22:30.155Z,14.90
2023-02-03T14:25:04.469Z,13.75
2023-02-03T14:27:31.579Z,21.02
2023-02-03T14:30:09.926Z,18.35
2023-02-03T14:32:59.488Z,13.63
2023-02-03T14:35:35.046Z,17.88
2023-02-03T14:38:09.155Z,13.35
2023-02-03T14:40:43.422Z,11.82
2023-02-03T14:43:33.297Z,15.73
2023-02-03T14:46:33.244Z,15.18
2023-02-03T14:49:17.071Z,19.08
2023-02-03T14:51:50.752Z,17.40
2023-02-03T14:54:35.224Z,18.45
2023-02-03T14:57:16.589Z,25.30
2023-02-03T14:59:47.657Z,16.73
2023-02-03T15:02:22.573Z,14.68
2023-02-03T15:04:49.327Z,17.95
2023-02-03T15:07:45.133Z,14.00
2023-02-03T15:10:49.899Z,17.42
2023-02-03T15:13:27.255Z,20.05
2023-02-03T15:15:56.471Z,17.00
2023-02-03T15:18:32.326Z,16.08
2023-02-03T15:20:59.122Z,19.92
2023-02-03T15:23:31.009Z,17.77
2023-02-03T15:26:12.842Z,18.27
2023-02-03T15:28:39.331Z,15.77
2023-02-03T15:31:09.445Z,16.33
2023-02-03T15:33:38.928Z,14.13
2023-02-03T15:36:15.821Z,14.98
2023-02-03T15:38:48.176Z,18.63
2023-02-03T15:41:23.256Z,12.90
2023-02-03T15:43:53.834Z,13.98
2023-02-03T15:46:28.940Z,18.77
2023-02-03T15:49:02.871Z,21.17
2023-02-03T15:51:55.400Z,17.65
2023-02-03T15:54:30.429Z,21.63
2023-02-03T15:57:06.860Z,18.27
2023-02-03T15:59:36.839Z,19.60
2023-02-03T16:02:17.410Z,16.08
2023-02-03T16:04:45.277Z,15.48
2023-02-03T16:07:29.914Z,14.82
2023-02-03T16:09:57.967Z,24.55
2023-02-03T16:12:29.052Z,17.25
2023-02-03T16:14:56.879Z,15.20
2023-02-03T16:17:37.111Z,20.10
2023-02-03T16:20:12.238Z,16.50
2023-02-03T16:22:39.867Z,22.55
2023-02-03T16:25:20.922Z,20.17
2023-02-03T16:28:10.538Z,17.42
2023-02-03T16:30:37.184Z,19.15
2023-02-03T16:33:09.477Z,17.42
2023-02-03T16:35:35.844Z,12.32
2023-02-03T16:38:16.321Z,20.55
2023-02-03T16:40:47.028Z,16.23
2023-02-03T16:43:16.055Z,21.02
2023-02-03T16:45:43.019Z,15.30
2023-02-03T16:48:11.519Z,18.95
2023-02-03T16:50:39.599Z,18.83
2023-02-03T16:53:11.991Z,14.75
2023-02-03T16:55:38.328Z,20.75
2023-02-03T16:58:04.685Z,17.92
2023-02-03T17:00:31.219Z,16.95
2023-02-03T17:02:58.681Z,17.55
2023-02-03T17:05:25.253Z,14.98
2023-02-03T17:07:51.611Z,23.88
2023-02-03T17:10:18.061Z,21.88
2023-02-03T17:12:44.445Z,22.20
2023-02-03T17:15:10.854Z,21.75
2023-02-03T17:17:37.304Z,18.85
2023-02-03T17:20:04.098Z,22.05
2023-02-03T17:22:30.538Z,20.92
2023-02-03T17:24:56.893Z,16.77
2023-02-03T17:27:23.270Z,19.38
2023-02-03T17:29:49.617Z,20.83
2023-02-03T17:32:16.081Z,21.60
2023-02-03T17:34:42.640Z,16.40
2023-02-03T17:37:09.047Z,21.52
2023-02-03T17:55:41.999Z,20.17
2023-02-03T17:58:08.788Z,13.95
2023-02-03T18:00:35.246Z,22.83
2023-02-03T18:03:01.582Z,19.02
2023-02-03T18:05:28.074Z,23.90
2023-02-03T18:07:54.711Z,17.80
2023-02-03T18:10:21.642Z,19.95
2023-02-03T18:12:48.161Z,21.75
2023-02-03T18:15:14.534Z,14.50
2023-02-03T18:17:40.888Z,20.45
2023-02-03T18:20:07.692Z,23.83
2023-02-03T18:22:34.095Z,17.75
2023-02-03T18:25:00.476Z,20.95
2023-02-03T18:27:27.106Z,24.42
2023-02-03T18:29:53.473Z,20.00
2023-02-03T18:32:19.804Z,20.85
2023-02-03T18:34:46.230Z,13.57
2023-02-03T18:37:12.592Z,16.13
2023-02-03T18:39:38.936Z,17.25
2023-02-03T18:42:05.492Z,20.42
2023-02-03T18:44:31.846Z,25.00
2023-02-03T18:46:58.664Z,14.00
2023-02-03T18:49:24.989Z,18.42
2023-02-03T18:51:51.404Z,22.83
2023-02-03T18:54:17.785Z,20.67
2023-02-03T18:56:44.140Z,19.67
2023-02-03T18:59:11.267Z,20.77
2023-02-03T19:01:38.649Z,19.45
2023-02-03T19:04:05.689Z,19.40
2023-02-03T19:06:33.716Z,24.23
2023-02-03T19:09:00.993Z,15.75
2023-02-03T19:11:27.508Z,18.42
2023-02-03T19:13:53.937Z,21.90
2023-02-03T19:16:20.714Z,22.98
2023-02-03T19:18:47.340Z,23.85
2023-02-03T19:21:14.172Z,17.15
2023-02-03T19:23:41.620Z,21.90
2023-02-03T19:26:08.499Z,18.50
2023-02-03T19:28:35.516Z,21.08
2023-02-03T19:31:07.843Z,15.40
2023-02-03T19:33:35.921Z,21.25
2023-02-03T19:36:02.965Z,13.00
2023-02-03T19:38:29.377Z,14.93
2023-02-03T19:40:55.848Z,15.52
2023-02-03T19:43:22.204Z,19.20
2023-02-03T19:45:48.602Z,18.20
2023-02-03T19:48:14.923Z,12.73
2023-02-03T19:50:41.349Z,16.98
2023-02-03T19:53:07.785Z,18.02
2023-02-03T19:55:34.229Z,16.95
2023-02-03T19:58:00.603Z,17.27
2023-02-03T20:00:28.149Z,23.83
2023-02-03T20:02:54.824Z,16.75
2023-02-03T20:05:21.666Z,25.45
2023-02-03T20:07:48.045Z,19.75
2023-02-03T20:10:14.588Z,17.80
2023-02-03T20:12:40.961Z,19.95
2023-02-03T20:15:07.899Z,16.00
2023-02-03T20:17:34.301Z,14.93
2023-02-03T20:20:00.667Z,24.48
2023-02-03T20:22:27.219Z,16.45
2023-02-03T20:24:53.551Z,20.58
2023-02-03T20:27:19.896Z,19.48
2023-02-03T20:29:46.291Z,15.43
2023-02-03T20:32:12.945Z,21.55
2023-02-03T20:34:39.268Z,15.43
2023-02-03T20:37:05.619Z,12.82
2023-02-03T20:39:32.043Z,17.90
2023-02-03T20:41:58.605Z,19.02
2023-02-03T20:44:25.019Z,16.10
2023-02-03T20:46:51.354Z,14.32
2023-02-03T20:49:17.783Z,13.57
2023-02-03T20:51:45.660Z,19.58
2023-02-03T20:54:20.756Z,21.15
2023-02-03T20:56:48.465Z,14.85
2023-02-03T20:59:19.195Z,15.70
2023-02-03T21:01:46.410Z,17.40
2023-02-03T21:04:17.871Z,17.55
2023-02-03T21:06:44.213Z,20.73
2023-02-03T21:09:16.120Z,18.63
2023-02-03T21:11:43.192Z,19.95
2023-02-03T21:14:28.963Z,18.85
2023-02-03T21:16:55.437Z,17.27
2023-02-03T21:19:28.794Z,17.02
2023-02-03T21:21:55.910Z,17.27
2023-02-03T21:24:31.943Z,22.02
2023-02-03T21:27:00.146Z,15.88
2023-02-03T21:29:32.884Z,18.05
2023-02-03T21:31:59.810Z,16.25
2023-02-03T21:34:32.199Z,17.17
2023-02-03T21:37:17.077Z,18.10
2023-02-03T21:39:43.508Z,16.40
2023-02-03T21:42:31.873Z,17.15
2023-02-03T21:44:58.210Z,18.15
2023-02-03T21:47:24.558Z,16.67
2023-02-03T21:49:50.944Z,17.08
2023-02-03T21:52:17.294Z,14.48
2023-02-03T21:54:43.649Z,21.42
2023-02-03T21:57:13.925Z,24.48
2023-02-03T21:59:41.211Z,19.00
2023-02-03T22:02:55.132Z,17.80
2023-02-03T22:05:21.473Z,13.68
2023-02-03T22:07:47.804Z,16.85
2023-02-03T22:10:14.238Z,13.63
2023-02-03T22:12:40.658Z,14.57
2023-02-03T22:15:07.404Z,21.05
2023-02-03T22:17:33.847Z,20.70
2023-02-03T22:20:00.194Z,10.27
2023-02-03T22:22:26.565Z,14.88
2023-02-03T22:24:52.898Z,17.05
2023-02-03T22:27:19.226Z,17.65
2023-02-03T22:29:45.558Z,16.23
2023-02-03T22:32:11.872Z,12.45
2023-02-03T22:34:38.188Z,19.02
2023-02-03T22:37:04.572Z,15.20
2023-02-03T22:39:30.921Z,20.52
2023-02-03T22:41:57.307Z,19.23
2023-02-03T22:44:23.724Z,15.57
2023-02-03T22:46:50.030Z,16.48
2023-02-03T22:49:16.368Z,18.83
2023-02-03T22:51:42.702Z,15.10
2023-02-03T22:54:09.020Z,19.20
2023-02-03T22:56:35.355Z,18.20
2023-02-03T22:59:01.695Z,20.33
2023-02-03T23:01:28.083Z,16.80
2023-02-03T23:03:54.437Z,21.77
2023-02-03T23:06:20.758Z,19.45
2023-02-03T23:08:47.106Z,14.77
2023-02-03T23:11:13.477Z,21.30
2023-02-03T23:13:39.816Z,17.65
2023-02-03T23:16:06.315Z,20.48
2023-02-03T23:18:32.715Z,17.13
2023-02-03T23:20:59.086Z,18.83
2023-02-03T23:23:25.424Z,15.15
2023-02-03T23:25:51.789Z,20.20
2023-02-03T23:28:18.214Z,16.38
2023-02-03T23:30:44.639Z,16.27
2023-02-03T23:33:11.039Z,15.70
2023-02-03T23:35:37.367Z,16.00
2023-02-03T23:38:03.823Z,15.75
2023-02-03T23:40:30.415Z,10.80
2023-02-03T23:42:57.008Z,16.27
2023-02-03T23:45:23.342Z,17.80
2023-02-03T23:47:49.765Z,18.33
2023-02-03T23:50:17.286Z,16.15
2023-02-03T23:52:43.582Z,20.83
2023-02-03T23:55:18.069Z,20.52
2023-02-03T23:57:45.036Z,17.58
